Time;durP1;ratioP1;P1;durP2;ratioP2;P2;SDS_P1;SDS_P2;PMS_P1;PMS_P2;Temp;Humidity;BMP_temperature;BMP_pressure;BME280_temperature;BME280_humidity;BME280_pressure;Samples;Min_cycle;Max_cycle;Signal;HPM_P1;HPM_P2
2021/06/03 00:02:14;;;;;;;13.23;3.50;;;;;;;11.90;52.09;100825.06;5144002;27;20490;-69
2021/06/03 00:04:40;;;;;;;11.07;3.17;;;;;;;12.01;52.14;100849.78;5145390;27;20054;-64
2021/06/03 00:07:08;;;;;;;11.95;3.22;;;;;;;11.90;51.94;100841.91;5121284;27;20826;-81
2021/06/03 00:09:34;;;;;;;8.50;3.45;;;;;;;11.97;51.87;100840.06;5117718;27;20126;-67
2021/06/03 00:12:00;;;;;;;9.55;3.28;;;;;;;11.83;52.21;100810.94;5141768;27;20133;-66
2021/06/03 00:14:27;;;;;;;17.25;4.32;;;;;;;11.89;52.65;100834.81;5141578;27;20091;-67
2021/06/03 00:16:54;;;;;;;13.80;4.65;;;;;;;11.89;52.26;100833.94;5124004;27;20115;-68
2021/06/03 00:19:20;;;;;;;12.20;3.83;;;;;;;11.90;52.64;100847.22;5125140;27;20051;-72
2021/06/03 00:21:47;;;;;;;11.75;3.50;;;;;;;11.45;52.71;100773.16;5139389;27;20067;-69
2021/06/03 00:24:13;;;;;;;5.78;3.45;;;;;;;11.75;52.89;100843.81;5095971;27;20054;-78
2021/06/03 00:26:39;;;;;;;13.40;3.92;;;;;;;11.66;52.92;100835.88;5127475;27;20070;-69
2021/06/03 00:29:06;;;;;;;13.18;4.85;;;;;;;11.77;52.91;100847.31;5130727;27;20066;-68
2021/06/03 00:31:33;;;;;;;46.00;6.80;;;;;;;11.76;52.91;100846.44;5130847;27;20435;-67
2021/06/03 00:34:00;;;;;;;38.90;5.88;;;;;;;11.71;53.18;100837.59;5110039;27;20042;-65
2021/06/03 00:36:26;;;;;;;22.38;5.40;;;;;;;11.67;53.24;100838.53;5113016;27;20518;-68
2021/06/03 00:38:52;;;;;;;10.05;3.83;;;;;;;11.69;53.21;100843.84;5130027;27;20517;-66
2021/06/03 00:41:19;;;;;;;10.30;3.83;;;;;;;11.55;53.76;100811.16;5112786;27;20152;-67
2021/06/03 00:43:46;;;;;;;11.95;4.32;;;;;;;11.66;53.06;100846.50;5110937;27;20152;-66
2021/06/03 00:46:13;;;;;;;16.95;4.75;;;;;;;11.61;53.34;100843.00;5129295;27;20042;-68
2021/06/03 00:48:39;;;;;;;22.98;4.28;;;;;;;11.62;53.32;100840.34;5130670;27;20061;-65
2021/06/03 00:51:07;;;;;;;13.15;3.75;;;;;;;11.60;53.53;100843.88;5092439;27;20043;-70
2021/06/03 00:53:36;;;;;;;18.98;4.28;;;;;;;11.64;53.51;100848.31;5111027;27;20043;-79
2021/06/03 00:56:04;;;;;;;9.18;4.10;;;;;;;11.53;53.91;100844.81;5112523;27;20082;-68
2021/06/03 00:58:36;;;;;;;6.60;3.95;;;;;;;11.40;53.29;100814.78;5128452;27;20507;-82
2021/06/03 01:01:09;;;;;;;12.32;3.33;;;;;;;11.54;53.27;100843.91;5112898;27;20050;-68
2021/06/03 01:03:36;;;;;;;4.47;3.13;;;;;;;11.43;53.53;100829.84;5122354;27;20064;-69
2021/06/03 01:06:10;;;;;;;8.65;3.30;;;;;;;11.51;53.89;100849.25;5109413;27;20035;-68
2021/06/03 01:08:48;;;;;;;9.70;3.60;;;;;;;11.42;53.95;100834.25;5117821;27;20047;-69
2021/06/03 01:11:59;;;;;;;7.30;3.67;;;;;;;11.41;53.43;100842.22;5129044;27;20094;-70
2021/06/03 01:14:27;;;;;;;10.70;3.22;;;;;;;11.35;53.73;100816.59;5053255;28;20060;-68
2021/06/03 01:16:58;;;;;;;8.77;3.28;;;;;;;11.40;53.49;100821.88;5034475;28;20113;-69
2021/06/03 01:19:27;;;;;;;6.18;3.30;;;;;;;11.45;53.36;100847.53;5034950;28;20044;-67
2021/06/03 01:22:03;;;;;;;8.25;3.25;;;;;;;11.51;53.21;100846.59;5040815;28;20052;-69
2021/06/03 01:24:37;;;;;;;8.10;3.13;;;;;;;11.39;53.20;100842.22;5062307;28;20641;-70
2021/06/03 01:27:10;;;;;;;;;;;;;;;11.49;53.91;100846.63;5051739;28;20078;-72
2021/06/03 01:30:01;;;;;;;7.75;3.00;;;;;;;11.38;54.21;100848.44;5084133;28;19920;-69
2021/06/03 01:32:30;;;;;;;9.77;3.40;;;;;;;11.43;53.79;100854.59;5054441;28;20040;-69
2021/06/03 01:34:57;;;;;;;9.80;3.45;;;;;;;11.32;54.01;100858.22;5041871;28;20543;-70
2021/06/03 01:37:23;;;;;;;11.75;3.60;;;;;;;11.36;54.15;100849.34;5056124;28;20556;-72
2021/06/03 01:39:50;;;;;;;7.10;3.05;;;;;;;11.44;53.19;100851.03;5067705;28;20039;-70
2021/06/03 01:42:18;;;;;;;6.68;3.15;;;;;;;11.40;53.66;100857.25;5083724;28;20048;-77
2021/06/03 01:44:45;;;;;;;8.10;3.53;;;;;;;11.45;53.38;100859.91;5082196;28;20036;-72
2021/06/03 01:47:13;;;;;;;7.88;3.50;;;;;;;11.42;53.65;100851.94;5064889;28;20410;-69
2021/06/03 01:49:42;;;;;;;8.80;3.10;;;;;;;11.52;53.55;100869.59;5083273;27;20137;-71
2021/06/03 01:52:09;;;;;;;6.28;3.03;;;;;;;11.44;53.51;100853.69;5137628;27;20063;-73
2021/06/03 01:54:37;;;;;;;7.05;3.08;;;;;;;11.48;53.14;100859.91;5130931;27;20043;-70
2021/06/03 01:57:08;;;;;;;21.08;3.38;;;;;;;11.42;53.15;100846.63;5126193;27;20050;-73
2021/06/03 01:59:37;;;;;;;13.48;3.40;;;;;;;11.26;53.56;100844.97;5121362;27;20043;-72
2021/06/03 02:02:05;;;;;;;5.53;3.00;;;;;;;11.48;53.29;100860.75;5124740;27;20772;-73
2021/06/03 02:04:31;;;;;;;13.80;2.95;;;;;;;11.49;53.40;100865.19;5122958;27;20095;-73
2021/06/03 02:06:57;;;;;;;5.00;3.00;;;;;;;11.55;53.42;100864.28;5121964;27;20043;-77
2021/06/03 02:09:26;;;;;;;8.70;2.80;;;;;;;11.42;52.70;100838.66;5124853;27;20027;-71
2021/06/03 02:11:56;;;;;;;5.53;2.78;;;;;;;11.59;52.77;100861.56;5123843;27;20063;-71
2021/06/03 02:14:32;;;;;;;9.20;2.97;;;;;;;11.56;53.00;100848.34;5123608;27;20130;-74
2021/06/03 02:17:17;;;;;;;11.40;3.20;;;;;;;11.62;52.49;100861.59;5108978;27;20082;-70
2021/06/03 02:20:00;;;;;;;10.10;2.85;;;;;;;11.64;52.73;100865.16;5107546;27;20380;-77
2021/06/03 02:22:31;;;;;;;11.57;2.92;;;;;;;11.61;52.20;100849.22;5122105;27;20087;-67
2021/06/03 02:25:00;;;;;;;9.13;2.72;;;;;;;11.77;52.15;100860.59;5108524;27;20039;-67
2021/06/03 02:27:27;;;;;;;9.38;2.63;;;;;;;11.78;52.07;100876.53;5123537;27;20386;-70
2021/06/03 02:29:54;;;;;;;9.65;2.88;;;;;;;11.81;51.86;100865.00;5125627;27;20494;-68
2021/06/03 02:32:32;;;;;;;12.77;3.13;;;;;;;11.83;51.82;100864.09;5126554;27;20359;-71
2021/06/03 02:34:59;;;;;;;9.55;2.63;;;;;;;11.81;51.31;100860.59;5102765;27;20039;-69
2021/06/03 02:37:28;;;;;;;10.80;2.58;;;;;;;11.72;51.54;100842.06;5119305;27;20498;-70
2021/06/03 02:40:01;;;;;;;11.10;2.65;;;;;;;11.82;51.77;100865.00;5123224;27;20474;-69
2021/06/03 02:42:30;;;;;;;8.13;2.63;;;;;;;11.93;51.51;100867.56;5088140;28;20032;-70
2021/06/03 02:44:57;;;;;;;8.10;2.65;;;;;;;11.96;51.20;100864.88;5105750;28;20054;-72
2021/06/03 02:47:26;;;;;;;12.65;2.63;;;;;;;11.94;51.13;100834.75;5116303;27;20045;-72
2021/06/03 02:49:53;;;;;;;8.10;2.45;;;;;;;11.97;51.07;100838.28;5115102;27;20044;-71
2021/06/03 02:52:19;;;;;;;7.55;2.28;;;;;;;12.01;50.71;100861.31;5079482;28;20043;-70
2021/06/03 02:54:51;;;;;;;6.57;2.45;;;;;;;12.12;50.57;100853.22;5112107;27;20135;-69
2021/06/03 02:57:18;;;;;;;8.45;2.60;;;;;;;12.17;50.94;100857.59;5123582;27;20051;-71
2021/06/03 02:59:44;;;;;;;8.93;2.80;;;;;;;12.24;50.45;100845.13;5124378;27;20039;-70
2021/06/03 03:02:11;;;;;;;11.23;2.30;;;;;;;12.25;50.09;100844.22;5107036;28;20409;-70
2021/06/03 03:04:37;;;;;;;6.07;2.15;;;;;;;12.27;50.04;100855.75;5106836;28;20146;-73
2021/06/03 03:07:04;;;;;;;4.43;2.53;;;;;;;12.27;50.04;100842.44;5102582;28;20742;-69
2021/06/03 03:09:31;;;;;;;11.80;2.28;;;;;;;12.27;50.18;100848.63;5112968;27;20040;-67
2021/06/03 03:11:58;;;;;;;7.53;2.40;;;;;;;12.41;50.26;100853.81;5105741;28;20061;-67
2021/06/03 03:14:25;;;;;;;9.13;2.53;;;;;;;12.53;49.89;100859.00;5124066;28;20039;-69
2021/06/03 03:16:54;;;;;;;8.75;2.53;;;;;;;12.57;49.82;100855.41;5101296;28;20120;-68
2021/06/03 03:19:21;;;;;;;12.27;2.72;;;;;;;12.56;49.40;100853.66;5106054;28;20047;-69
2021/06/03 03:21:47;;;;;;;9.45;2.45;;;;;;;12.64;49.45;100859.78;5120467;28;20050;-76
2021/06/03 03:24:13;;;;;;;11.63;2.50;;;;;;;12.63;49.19;100853.56;5122836;28;20152;-68
2021/06/03 03:26:39;;;;;;;7.25;2.42;;;;;;;12.64;49.33;100852.69;5126418;27;20053;-70
2021/06/03 03:29:07;;;;;;;9.55;2.50;;;;;;;12.66;49.47;100850.88;5108173;28;20031;-71
2021/06/03 03:31:34;;;;;;;5.93;2.20;;;;;;;12.77;49.35;100858.75;5124298;28;20081;-67
2021/06/03 03:34:03;;;;;;;8.18;2.58;;;;;;;12.68;49.02;100845.53;5119690;28;20039;-69
2021/06/03 03:36:32;;;;;;;9.10;2.35;;;;;;;12.87;49.05;100853.31;5089512;28;20039;-68
2021/06/03 03:38:59;;;;;;;8.07;2.78;;;;;;;12.94;48.79;100864.78;5112728;28;20043;-66
2021/06/03 03:41:25;;;;;;;4.45;2.55;;;;;;;12.81;48.77;100841.84;5125139;28;20619;-68
2021/06/03 03:43:52;;;;;;;13.52;2.60;;;;;;;13.05;49.06;100857.53;5108589;28;20088;-72
2021/06/03 03:46:18;;;;;;;11.73;2.50;;;;;;;13.10;48.49;100845.94;5108115;28;20043;-76
2021/06/03 03:48:46;;;;;;;13.65;2.60;;;;;;;13.13;48.62;100858.31;5116537;27;20776;-68
2021/06/03 03:51:14;;;;;;;8.98;2.40;;;;;;;13.22;48.38;100860.88;5125137;28;20095;-69
2021/06/03 03:53:43;;;;;;;8.23;3.08;;;;;;;13.33;48.00;100866.94;5092356;28;20043;-73
2021/06/03 03:56:12;;;;;;;7.80;2.40;;;;;;;13.25;48.13;100843.06;5111515;28;20130;-70
2021/06/03 03:58:42;;;;;;;4.97;2.30;;;;;;;13.48;47.92;100864.06;5122453;27;20065;-71
2021/06/03 04:01:13;;;;;;;5.82;2.00;;;;;;;13.54;47.81;100858.66;5115421;27;20050;-71
2021/06/03 04:03:40;;;;;;;17.65;4.20;;;;;;;13.61;47.65;100863.00;5128959;27;20050;-70
2021/06/03 04:06:09;;;;;;;6.57;2.42;;;;;;;13.62;47.60;100856.75;5128844;27;20066;-68
2021/06/03 04:08:36;;;;;;;11.55;2.50;;;;;;;13.72;47.20;100853.03;5104852;27;20054;-77
2021/06/03 04:11:04;;;;;;;5.80;2.30;;;;;;;13.87;47.53;100866.13;5107573;27;20047;-69
2021/06/03 04:13:35;;;;;;;13.43;2.63;;;;;;;13.87;47.00;100868.78;5090170;28;20495;-69
2021/06/03 04:16:06;;;;;;;12.25;2.80;;;;;;;13.95;47.32;100872.22;5118179;27;20125;-81
2021/06/03 04:18:32;;;;;;;7.85;3.13;;;;;;;14.05;47.10;100873.84;5117394;27;20176;-69
2021/06/03 04:21:00;;;;;;;8.45;2.90;;;;;;;14.16;47.38;100874.53;5119235;27;20046;-69
2021/06/03 04:23:26;;;;;;;6.75;2.47;;;;;;;14.23;46.66;100883.38;5106512;27;20043;-68
2021/06/03 04:25:52;;;;;;;10.15;2.55;;;;;;;14.18;46.65;100872.72;5126100;27;20130;-73
2021/06/03 04:28:18;;;;;;;6.25;2.28;;;;;;;14.28;46.78;100882.34;5124291;27;20491;-70
2021/06/03 04:30:45;;;;;;;6.07;2.47;;;;;;;14.28;46.15;100870.81;5117445;27;20031;-69
2021/06/03 04:33:16;;;;;;;6.80;2.53;;;;;;;14.31;46.91;100866.28;5128561;27;20050;-70
2021/06/03 04:35:42;;;;;;;4.47;2.10;;;;;;;14.34;46.01;100876.03;5124767;27;20043;-70
2021/06/03 04:38:08;;;;;;;8.57;2.88;;;;;;;14.44;46.11;100872.31;5114670;27;20063;-70
2021/06/03 04:40:34;;;;;;;6.35;2.05;;;;;;;14.51;46.13;100874.81;5114716;27;20042;-69
2021/06/03 04:43:00;;;;;;;6.30;2.30;;;;;;;14.59;45.88;100880.03;5127838;27;20035;-77
2021/06/03 04:45:27;;;;;;;8.75;2.70;;;;;;;14.64;45.94;100884.34;5120705;27;20043;-67
2021/06/03 04:47:54;;;;;;;7.03;2.60;;;;;;;14.60;45.63;100879.13;5090204;28;20040;-67
2021/06/03 04:50:21;;;;;;;13.38;2.70;;;;;;;14.73;45.75;100886.88;5122584;27;20047;-71
2021/06/03 04:52:48;;;;;;;12.18;2.90;;;;;;;14.68;45.90;100870.03;5105231;27;20063;-68
2021/06/03 04:55:20;;;;;;;7.13;2.28;;;;;;;14.87;45.28;100886.63;5114025;27;20134;-67
2021/06/03 04:57:47;;;;;;;7.85;2.35;;;;;;;14.90;44.98;100883.84;5107638;27;20083;-67
2021/06/03 05:00:23;;;;;;;8.63;2.42;;;;;;;14.91;45.07;100883.84;5105606;27;20162;-67
2021/06/03 05:02:49;;;;;;;6.05;2.40;;;;;;;14.93;45.01;100865.09;5105488;28;20529;-68
2021/06/03 05:05:16;;;;;;;14.27;2.40;;;;;;;14.99;44.48;100873.00;5121197;27;20035;-69
2021/06/03 05:07:44;;;;;;;7.20;1.88;;;;;;;15.04;44.38;100866.66;5101871;28;20047;-70
2021/06/03 05:10:11;;;;;;;10.98;2.38;;;;;;;15.15;44.30;100869.97;5099903;27;20087;-67
2021/06/03 05:12:37;;;;;;;7.88;2.30;;;;;;;15.19;44.49;100860.97;5104615;28;20066;-67
2021/06/03 05:15:06;;;;;;;11.63;2.33;;;;;;;15.27;44.34;100867.03;5115364;27;20388;-72
2021/06/03 05:17:32;;;;;;;7.28;2.25;;;;;;;15.26;43.92;100864.41;5113947;27;20302;-68
2021/06/03 05:19:59;;;;;;;14.02;2.50;;;;;;;15.32;43.44;100864.28;5119158;27;20408;-69
2021/06/03 05:22:25;;;;;;;8.68;2.65;;;;;;;15.31;43.35;100855.38;5122493;27;20051;-69
2021/06/03 05:24:52;;;;;;;7.80;2.40;;;;;;;15.46;43.06;100867.59;5092354;28;20035;-69
2021/06/03 05:27:19;;;;;;;5.75;1.90;;;;;;;15.56;41.69;100858.41;5101978;27;20137;-68
2021/06/03 05:29:45;;;;;;;10.48;2.30;;;;;;;15.57;42.03;100871.75;5119139;27;20087;-68
2021/06/03 05:32:11;;;;;;;12.43;2.88;;;;;;;15.50;41.69;100834.50;5120328;27;20042;-81
2021/06/03 05:34:37;;;;;;;11.50;2.53;;;;;;;15.66;41.76;100868.88;5102829;27;20040;-69
2021/06/03 05:37:03;;;;;;;11.00;3.00;;;;;;;15.66;41.16;100866.19;5118864;27;20043;-68
2021/06/03 05:39:29;;;;;;;9.00;2.70;;;;;;;15.76;40.54;100874.88;5111865;27;20446;-70
2021/06/03 05:41:56;;;;;;;8.55;2.28;;;;;;;15.74;40.48;100861.53;5116666;27;20595;-69
2021/06/03 05:44:22;;;;;;;4.68;1.70;;;;;;;15.88;40.73;100864.78;5115531;27;20039;-70
2021/06/03 05:46:49;;;;;;;8.20;2.03;;;;;;;15.96;40.02;100872.63;5119816;27;20118;-69
2021/06/03 05:49:16;;;;;;;9.13;2.38;;;;;;;15.90;40.18;100846.03;5099480;27;20059;-77
2021/06/03 05:51:43;;;;;;;9.68;2.15;;;;;;;16.13;39.49;100876.63;5089102;27;20035;-68
2021/06/03 05:54:12;;;;;;;11.73;1.90;;;;;;;16.10;38.47;100862.47;5112370;27;20039;-71
2021/06/03 05:56:39;;;;;;;7.97;1.73;;;;;;;16.20;38.38;100874.69;5116728;27;20043;-69
2021/06/03 05:59:06;;;;;;;7.93;2.05;;;;;;;16.26;38.30;100869.19;5118664;27;20475;-72
2021/06/03 06:01:33;;;;;;;10.02;1.95;;;;;;;16.31;37.68;100870.84;5119300;27;20042;-68
2021/06/03 06:06:32;;;;;;;12.73;1.90;;;;;;;16.40;36.85;100867.03;5115217;27;20118;-74
2021/06/03 06:09:01;;;;;;;10.60;2.20;;;;;;;16.52;36.60;100878.34;5104628;27;20438;-69
2021/06/03 06:11:30;;;;;;;5.10;1.38;;;;;;;16.57;36.44;100878.19;5113246;27;20380;-68
2021/06/03 06:13:57;;;;;;;6.68;1.65;;;;;;;16.61;35.31;100878.06;5117123;27;20054;-73
2021/06/03 06:16:23;;;;;;;12.48;1.98;;;;;;;16.66;35.32;100884.19;5116316;27;20043;-68
2021/06/03 06:18:49;;;;;;;5.68;1.77;;;;;;;16.71;35.47;100870.69;5116409;27;20134;-70
2021/06/03 06:21:18;;;;;;;10.38;2.10;;;;;;;16.83;34.99;100891.78;5116343;27;20131;-70
2021/06/03 06:23:46;;;;;;;7.38;1.60;;;;;;;16.87;35.20;100885.41;5096778;28;20047;-66
2021/06/03 06:26:12;;;;;;;8.05;1.58;;;;;;;16.86;34.36;100878.28;5119428;27;20517;-69
2021/06/03 06:28:39;;;;;;;6.75;1.60;;;;;;;16.97;34.30;100877.06;5113876;27;20058;-68
2021/06/03 06:31:06;;;;;;;13.55;2.20;;;;;;;17.01;32.93;100875.19;5112818;27;20134;-70
2021/06/03 06:33:34;;;;;;;6.20;1.17;;;;;;;17.06;33.38;100879.47;5112323;27;20043;-69
2021/06/03 06:36:02;;;;;;;14.77;1.90;;;;;;;17.06;33.26;100865.22;5112648;27;20121;-73
2021/06/03 06:38:28;;;;;;;4.80;1.50;;;;;;;17.17;32.77;100882.72;5118747;27;20043;-76
2021/06/03 06:40:54;;;;;;;6.32;1.92;;;;;;;17.20;31.90;100871.03;5102618;27;20768;-74
2021/06/03 06:43:20;;;;;;;30.90;2.20;;;;;;;17.27;31.28;100870.81;5116828;27;20150;-71
2021/06/03 06:45:49;;;;;;;14.50;1.77;;;;;;;17.31;30.83;100876.97;5113094;27;20038;-67
2021/06/03 06:48:16;;;;;;;10.60;1.80;;;;;;;17.32;30.62;100879.59;5114985;27;20039;-69
2021/06/03 06:50:44;;;;;;;13.25;1.73;;;;;;;17.40;30.76;100888.34;5084482;27;20398;-70
2021/06/03 06:53:11;;;;;;;24.83;2.08;;;;;;;17.51;30.51;100886.22;5116444;27;20047;-70
2021/06/03 06:55:37;;;;;;;6.93;1.90;;;;;;;17.52;30.98;100882.59;5110988;27;20088;-74
2021/06/03 06:58:04;;;;;;;7.43;1.85;;;;;;;17.59;30.98;100880.59;5119410;27;20050;-68
2021/06/03 07:00:34;;;;;;;6.70;1.70;;;;;;;17.69;31.31;100874.91;5103977;28;20413;-69
2021/06/03 07:03:00;;;;;;;9.20;1.80;;;;;;;17.89;30.17;100874.28;5101631;28;20517;-69
2021/06/03 07:05:27;;;;;;;29.15;2.30;;;;;;;18.04;30.08;100874.66;5109781;27;20450;-67
2021/06/03 07:07:55;;;;;;;13.43;1.63;;;;;;;18.21;29.62;100876.78;5110520;28;20058;-66
2021/06/03 07:10:21;;;;;;;11.85;2.13;;;;;;;18.47;29.26;100884.00;5114624;28;20576;-69
2021/06/03 07:12:51;;;;;;;7.13;1.63;;;;;;;18.70;28.12;100881.41;5119239;27;20047;-70
2021/06/03 07:15:18;;;;;;;16.85;1.80;;;;;;;19.00;27.92;100882.97;5119142;28;20039;-70
2021/06/03 07:17:45;;;;;;;5.47;1.60;;;;;;;19.30;26.87;100892.66;5116222;28;20066;-67
2021/06/03 07:20:19;;;;;;;11.50;1.98;;;;;;;19.65;26.25;100890.34;5098119;28;20051;-74
2021/06/03 07:22:50;;;;;;;13.73;2.08;;;;;;;20.08;26.09;100886.81;5116790;27;20144;-69
2021/06/03 07:25:20;;;;;;;7.37;1.70;;;;;;;20.40;25.45;100887.25;5111059;28;20083;-71
2021/06/03 07:27:48;;;;;;;13.35;1.90;;;;;;;20.71;25.08;100873.34;5110850;28;20070;-70
2021/06/03 07:30:16;;;;;;;5.93;1.60;;;;;;;21.04;24.39;100886.25;5117007;27;20109;-75
2021/06/03 07:32:43;;;;;;;15.25;2.03;;;;;;;21.42;24.19;100893.47;5114101;28;20396;-71
2021/06/03 07:35:12;;;;;;;13.15;1.80;;;;;;;21.80;23.77;100891.72;5119860;27;20095;-72
2021/06/03 07:37:40;;;;;;;11.13;1.45;;;;;;;21.81;23.45;100888.06;5126990;27;20832;-77
2021/06/03 07:40:10;;;;;;;9.73;1.30;;;;;;;22.21;22.98;100901.38;5115180;27;20063;-75
2021/06/03 07:42:37;;;;;;;14.90;2.45;;;;;;;22.25;23.38;100902.06;5120148;27;20542;-74
2021/06/03 07:45:06;;;;;;;11.75;1.80;;;;;;;22.57;22.74;100885.13;5119963;27;20043;-72
2021/06/03 07:47:33;;;;;;;7.53;1.63;;;;;;;22.77;22.56;100893.09;5124948;27;20047;-71
2021/06/03 07:50:06;;;;;;;5.18;1.45;;;;;;;22.71;22.20;100896.13;5108222;27;20352;-68
2021/06/03 07:52:34;;;;;;;6.35;1.55;;;;;;;23.02;22.49;100894.44;5103306;27;20128;-69
2021/06/03 07:55:00;;;;;;;5.60;1.45;;;;;;;23.51;22.18;100893.59;5117235;27;20386;-69
2021/06/03 07:57:26;;;;;;;10.98;2.50;;;;;;;24.02;21.22;100889.81;5113433;27;20135;-72
2021/06/03 07:59:52;;;;;;;13.55;1.50;;;;;;;24.22;20.39;100890.44;5118629;27;20039;-66
2021/06/03 08:02:18;;;;;;;14.70;1.85;;;;;;;24.63;20.31;100901.56;5107609;27;20043;-69
2021/06/03 08:04:44;;;;;;;13.52;1.67;;;;;;;24.97;19.35;100883.16;5110860;27;20468;-68
2021/06/03 08:07:10;;;;;;;12.88;1.83;;;;;;;25.16;19.79;100902.78;5119161;27;20047;-77
2021/06/03 08:09:36;;;;;;;15.80;2.30;;;;;;;25.65;19.10;100887.91;5113955;27;20554;-71
2021/06/03 08:12:02;;;;;;;2.38;1.60;;;;;;;26.74;18.03;100905.13;5120910;27;20444;-66
2021/06/03 08:14:28;;;;;;;9.27;2.03;;;;;;;26.73;17.95;100893.34;5119763;27;20047;-72
2021/06/03 08:16:54;;;;;;;10.18;2.17;;;;;;;27.08;17.15;100891.78;5078276;27;20039;-77
2021/06/03 08:19:20;;;;;;;9.15;2.35;;;;;;;28.73;15.61;100917.72;5118863;27;20030;-73
2021/06/03 08:21:47;;;;;;;16.00;2.10;;;;;;;28.86;15.51;100917.63;5115676;27;20051;-73
2021/06/03 08:24:14;;;;;;;10.38;1.73;;;;;;;28.83;15.48;100909.66;5101594;28;20075;-72
2021/06/03 08:26:40;;;;;;;9.32;1.70;;;;;;;29.82;15.18;100926.31;5112431;27;20054;-70
2021/06/03 08:29:07;;;;;;;6.60;1.80;;;;;;;30.17;14.63;100928.97;5114419;27;20031;-73
2021/06/03 08:31:33;;;;;;;13.05;2.00;;;;;;;31.08;13.52;100932.03;5099438;28;20384;-72
2021/06/03 08:34:03;;;;;;;8.43;1.58;;;;;;;31.12;13.79;100932.66;5097142;27;20499;-80
2021/06/03 08:36:30;;;;;;;10.32;1.50;;;;;;;31.84;13.25;100921.59;5118459;27;20100;-68
2021/06/03 08:38:56;;;;;;;8.18;1.63;;;;;;;32.78;12.67;100925.66;5118439;27;20035;-67
2021/06/03 08:41:22;;;;;;;12.93;2.00;;;;;;;32.43;13.13;100930.81;5079742;27;20455;-67
2021/06/03 08:43:48;;;;;;;15.20;1.75;;;;;;;32.75;12.41;100919.59;5113945;27;20067;-64
2021/06/03 08:46:14;;;;;;;8.18;2.55;;;;;;;32.48;12.33;100916.66;5096990;27;20130;-67
2021/06/03 08:48:41;;;;;;;19.77;2.03;;;;;;;32.63;12.00;100915.22;5117045;27;20046;-66
2021/06/03 08:51:07;;;;;;;10.13;1.58;;;;;;;32.99;12.06;100912.66;5088757;27;20035;-69
2021/06/03 08:53:33;;;;;;;16.05;2.85;;;;;;;33.67;12.07;100914.31;5114028;27;20053;-63
2021/06/03 08:56:20;;;;;;;11.43;1.83;;;;;;;34.45;11.78;100914.69;5100638;27;20478;-64
2021/06/03 08:58:49;;;;;;;7.72;1.88;;;;;;;34.73;11.37;100919.16;5110910;27;20054;-67
2021/06/03 09:01:18;;;;;;;15.65;1.80;;;;;;;33.43;11.59;100922.19;5113889;27;20031;-73
2021/06/03 09:03:45;;;;;;;6.32;1.67;;;;;;;33.54;11.74;100908.28;5105069;27;20134;-72
2021/06/03 09:06:15;;;;;;;10.35;1.80;;;;;;;34.48;11.45;100910.78;5110936;27;20097;-71
2021/06/03 09:08:59;;;;;;;9.45;1.70;;;;;;;34.37;10.95;100920.09;5109871;27;20044;-68
2021/06/03 09:11:27;;;;;;;5.47;1.48;;;;;;;34.55;10.41;100904.47;5108374;27;20520;-73
2021/06/03 09:13:57;;;;;;;5.88;1.60;;;;;;;34.97;10.12;100902.00;5090648;27;20039;-68
2021/06/03 09:16:38;;;;;;;7.10;1.60;;;;;;;36.17;9.62;100913.88;5094513;27;20052;-67
2021/06/03 09:19:09;;;;;;;8.55;1.65;;;;;;;35.29;10.23;100905.94;5114371;27;20067;-77
2021/06/03 09:21:43;;;;;;;19.35;2.17;;;;;;;34.82;10.34;100890.66;5110685;27;20065;-76
2021/06/03 09:24:13;;;;;;;11.88;1.83;;;;;;;35.15;10.98;100902.81;5099985;27;20039;-78
2021/06/03 09:26:45;;;;;;;10.35;1.80;;;;;;;34.56;10.42;100897.09;5114947;27;20035;-72
2021/06/03 09:29:14;;;;;;;15.63;1.60;;;;;;;35.80;9.92;100878.31;5097429;27;20071;-69
2021/06/03 09:32:23;;;;;;;7.10;1.55;;;;;;;36.26;9.85;100885.28;5105309;27;20039;-68
2021/06/03 09:34:55;;;;;;;8.95;1.92;;;;;;;36.92;9.69;100894.44;5114997;27;20415;-65
2021/06/03 09:37:32;;;;;;;6.28;1.63;;;;;;;36.25;9.72;100886.31;5112233;27;20035;-68
2021/06/03 09:39:59;;;;;;;6.50;1.77;;;;;;;37.07;9.25;100878.88;5095621;27;20047;-68
2021/06/03 09:42:25;;;;;;;5.60;1.98;;;;;;;36.66;9.77;100877.13;5116074;27;20156;-74
2021/06/03 09:44:55;;;;;;;9.00;2.10;;;;;;;37.19;9.69;100868.34;5115904;27;20911;-70
2021/06/03 09:47:35;;;;;;;18.85;2.20;;;;;;;34.64;9.87;100883.38;5103865;27;20127;-70
2021/06/03 09:50:06;;;;;;;20.77;2.42;;;;;;;35.85;9.25;100841.94;5102250;27;20051;-69
2021/06/03 09:52:34;;;;;;;11.02;1.70;;;;;;;35.71;9.53;100875.69;5116294;27;20040;-73
2021/06/03 09:55:10;;;;;;;11.13;2.00;;;;;;;36.69;8.86;100866.59;5102710;27;20205;-72
2021/06/03 09:57:38;;;;;;;9.32;2.03;;;;;;;36.53;8.76;100871.19;5089180;27;20047;-70
2021/06/03 10:00:09;;;;;;;9.32;1.50;;;;;;;35.70;9.91;100876.69;5114274;27;20043;-71
2021/06/03 10:02:44;;;;;;;13.57;1.60;;;;;;;35.42;9.71;100875.13;5115135;27;20051;-75
2021/06/03 10:05:16;;;;;;;9.35;1.80;;;;;;;35.98;9.21;100870.81;5116049;27;20050;-71
2021/06/03 10:07:57;;;;;;;4.78;1.90;;;;;;;36.01;9.33;100847.53;5114887;27;20124;-72
2021/06/03 10:10:24;;;;;;;;;;;;;;;36.83;9.13;100865.91;5111556;27;20182;-68
2021/06/03 10:12:51;;;;;;;13.73;2.22;;;;;;;37.58;9.34;100872.09;5116644;27;19927;-72
2021/06/03 10:15:20;;;;;;;12.13;1.52;;;;;;;37.06;8.78;100863.34;5094743;27;20051;-72
2021/06/03 10:18:00;;;;;;;6.95;2.08;;;;;;;37.12;8.81;100858.97;5097079;27;20451;-72
2021/06/03 10:20:50;;;;;;;10.57;1.67;;;;;;;35.05;9.94;100822.09;5096613;27;20039;-69
2021/06/03 10:23:26;;;;;;;16.10;2.40;;;;;;;36.03;10.09;100845.47;5105898;27;20060;-72
2021/06/03 10:26:03;;;;;;;8.85;1.90;;;;;;;35.65;9.84;100838.53;5109239;27;20503;-72
2021/06/03 10:28:29;;;;;;;12.43;1.90;;;;;;;36.85;9.48;100838.06;5094124;27;20091;-72
2021/06/03 10:31:01;;;;;;;12.50;1.77;;;;;;;36.76;9.39;100814.22;5111153;27;20039;-68
2021/06/03 10:33:30;;;;;;;12.15;1.88;;;;;;;36.88;9.32;100834.09;5115901;27;20043;-74
2021/06/03 10:35:59;;;;;;;14.25;1.90;;;;;;;37.00;9.12;100838.22;5120742;27;20047;-69
2021/06/03 10:38:26;;;;;;;8.15;1.58;;;;;;;37.38;8.48;100838.41;5115401;27;20047;-69
2021/06/03 10:40:55;;;;;;;13.70;1.80;;;;;;;36.76;8.77;100839.13;5107473;27;20043;-73
2021/06/03 10:43:22;;;;;;;10.55;1.80;;;;;;;35.96;9.11;100839.75;5098986;28;20047;-76
2021/06/03 10:45:48;;;;;;;11.50;1.70;;;;;;;36.52;8.47;100842.69;5117882;27;20042;-70
2021/06/03 10:48:17;;;;;;;10.98;1.60;;;;;;;36.26;9.08;100818.97;5119117;27;20517;-69
2021/06/03 10:50:48;;;;;;;6.38;1.60;;;;;;;37.12;8.81;100823.88;5112498;27;20081;-68
2021/06/03 10:53:28;;;;;;;7.90;1.80;;;;;;;36.81;8.88;100822.84;5118441;27;20035;-76
2021/06/03 10:56:07;;;;;;;15.45;2.20;;;;;;;36.39;9.47;100811.91;5095926;28;20048;-65
2021/06/03 10:58:37;;;;;;;10.70;1.60;;;;;;;37.16;9.19;100799.50;5083932;28;20556;-65
2021/06/03 11:01:09;;;;;;;13.93;1.77;;;;;;;35.95;9.31;100806.78;5110522;27;20039;-69
2021/06/03 11:03:46;;;;;;;15.88;1.70;;;;;;;35.85;9.63;100815.19;5111607;27;20503;-76
2021/06/03 11:06:15;;;;;;;11.27;1.88;;;;;;;34.54;10.63;100767.72;5093358;27;20042;-69
2021/06/03 11:08:50;;;;;;;11.98;1.67;;;;;;;34.68;10.50;100796.59;5107408;27;20043;-73
2021/06/03 11:11:19;;;;;;;8.63;1.80;;;;;;;34.37;10.96;100800.78;5115430;27;20066;-69
2021/06/03 11:13:48;;;;;;;13.57;1.92;;;;;;;33.64;11.16;100787.13;5100626;28;20636;-69
2021/06/03 11:16:22;;;;;;;12.73;1.85;;;;;;;34.82;10.88;100796.94;5097484;28;20172;-70
2021/06/03 11:18:48;;;;;;;8.52;1.75;;;;;;;34.55;11.12;100790.59;5116612;27;20039;-67
2021/06/03 11:24:35;;;;;;;8.43;1.45;;;;;;;33.67;11.21;100776.69;5112577;28;20043;-72
2021/06/03 11:27:06;;;;;;;13.15;1.77;;;;;;;33.60;11.33;100780.19;5095414;28;20511;-66
2021/06/03 11:29:34;;;;;;;5.40;1.60;;;;;;;31.55;12.78;100769.72;5102630;28;20032;-67
2021/06/03 11:32:06;;;;;;;10.65;1.83;;;;;;;31.58;12.73;100782.28;5110232;28;20134;-67
2021/06/03 11:34:38;;;;;;;7.35;1.92;;;;;;;31.55;13.07;100768.84;5087726;28;20138;-66
2021/06/03 11:37:18;;;;;;;7.90;1.63;;;;;;;30.88;13.14;100764.91;5116013;28;20039;-64